Create Custom Reports and Graphics: Custom Report

Stanford Met Tower

Current Conditions

12/6/19 11:15 PM (-08:00)
Updated Every 15 Minutes
Temp 54.5 °F   3.4
RH 96 %   17
Dew Pt 53.5 °F   2.0
Wind Dir ESE | 119 °
Wind Spd 9.1 mph   4.7
Wind Gust 18.0 mph   8.2
Solar Rad 0 W/m2   0
Daily Min Temp 51.0 °F   0.2
Daily Max Temp 66.3 °F   4.8
Daily Max Wind 43.6 mph   16.9
Daily Rain 0.00 In
Min Temp Yest 51.3 °F
Max Temp Yest 61.6 °F
Max Wind Yest 26.7 mph
Rain Yest 0.00 In
Seasonal Rainfall 0.06 In

Last 48 Hours

Stanford Met Tower

Hourly Data | America/Los_Angeles
as of 12/6/19 11:27 PM PST
Date & Time Temp (°F) Temp Inversion (°F) RH (%) Dew Pt (°F) Wind Dir (°) Wind Spd (mph) Wind Gust (mph) Latest Rain (In) ETo Hr (in) ETo 2pm (In) Daily Rain (In) Daily Min Temp (°F) Daily Max Temp (°F)
12/6/19 - 2300 54.5 0.4 96 53.5 SE | 124 9.0 20.1 0.00 0.000 0.03 0.00 51.0 66.3
12/6/19 - 2200 54.8 0.4 95 53.4 SE | 126 11.2 31.9 0.00 0.000 0.03 0.00 51.0 66.3
12/6/19 - 2100 55.5 0.6 90 52.6 SE | 124 12.5 27.6 0.00 0.000 0.03 0.00 51.0 66.3
12/6/19 - 2000 56.9 1.0 88 53.5 SE | 127 10.5 22.8 0.00 0.000 0.03 0.00 51.0 66.3
12/6/19 - 1900 58.5 1.0 85 53.9 SSE | 147 10.2 31.3 0.00 0.000 0.03 0.00 51.0 66.3
12/6/19 - 1800 60.0 1.0 73 51.3 SSE | 152 20.2 43.6 0.00 0.000 0.03 0.00 51.0 66.3
12/6/19 - 1700 61.5 0.7 69 51.2 SSE | 154 12.7 42.0 0.00 0.000 0.03 0.00 51.0 66.3
12/6/19 - 1600 61.9 0.1 66 50.4 SE | 139 15.2 30.9 0.00 0.001 0.03 0.00 51.0 66.3
12/6/19 - 1500 63.5 -0.2 61 50.0 SSE | 158 17.5 39.4 0.00 0.004 0.03 0.00 51.0 66.3
12/6/19 - 1400 64.0 0.4 59 49.6 SE | 146 16.1 35.5 0.00 0.003 0.03 0.00 51.0 66.3
12/6/19 - 1300 63.9 0.2 58 48.8 SSE | 158 14.8 31.6 0.00 0.003 0.02 0.00 51.0 66.3
12/6/19 - 1200 64.6 0.0 57 49.0 SE | 146 15.3 37.9 0.00 0.006 0.02 0.00 51.0 66.3
12/6/19 - 1100 64.7 -1.2 58 49.8 SE | 126 15.6 35.5 0.00 0.009 0.02 0.00 51.0 65.4
12/6/19 - 1000 62.1 -0.7 66 50.7 SE | 125 12.0 24.0 0.00 0.005 0.02 0.00 51.0 62.7
12/6/19 - 0900 58.9 1.1 76 51.3 ESE | 122 11.2 24.7 0.00 0.001 0.02 0.00 51.0 59.1
12/6/19 - 0800 57.6 1.2 79 51.1 E | 97 7.0 19.2 0.00 0.000 0.02 0.00 51.0 58.4
12/6/19 - 0700 56.5 1.2 83 51.6 E | 94 7.0 12.0 0.00 0.000 0.02 0.00 51.0 58.4
12/6/19 - 0600 56.3 1.1 83 51.3 ESE | 110 7.4 20.9 0.00 0.000 0.02 0.00 51.0 58.4
12/6/19 - 0500 56.6 1.6 82 51.3 ESE | 115 6.5 16.2 0.00 0.000 0.02 0.00 51.0 58.3
12/6/19 - 0400 53.4 2.0 93 51.5 SSE | 164 4.8 8.7 0.00 0.000 0.02 0.00 51.0 58.3
12/6/19 - 0300 52.9 3.4 90 50.1 ESE | 110 6.4 13.5 0.00 0.000 0.02 0.00 52.9 58.3
12/6/19 - 0200 58.0 1.2 81 52.1 ESE | 119 6.7 14.5 0.00 0.000 0.02 0.00 56.5 58.3
12/6/19 - 0100 56.8 1.2 85 52.2 ESE | 104 4.7 12.7 0.00 0.000 0.02 0.00 56.5 58.3
12/6/19 - 0000 56.5 1.4 85 52.2 SE | 131 3.5 10.3 0.00 0.000 0.02 0.00 51.3 61.6
12/5/19 - 2300 57.8 1.6 79 51.2 SSE | 167 8.2 18.5 0.00 0.000 0.02 0.00 51.3 61.6
12/5/19 - 2200 58.0 0.8 78 51.2 S | 169 8.2 20.6 0.00 0.000 0.02 0.00 51.3 61.6
12/5/19 - 2100 57.6 1.9 86 53.6 SE | 143 4.5 12.2 0.00 0.000 0.02 0.00 51.3 61.6
12/5/19 - 2000 57.4 1.3 84 52.6 SW | 226 3.0 10.1 0.00 0.000 0.02 0.00 51.3 61.6
12/5/19 - 1900 58.4 0.9 80 52.1 SW | 228 5.5 15.0 0.00 0.000 0.02 0.00 51.3 61.6
12/5/19 - 1800 58.1 1.0 83 52.9 NW | 318 3.5 9.3 0.00 0.000 0.02 0.00 51.3 61.6
12/5/19 - 1700 59.2 1.4 77 52.0 S | 183 2.2 11.7 0.00 0.000 0.02 0.00 51.3 61.6
12/5/19 - 1600 60.3 0.5 74 52.2 S | 178 9.4 26.7 0.00 0.001 0.02 0.00 51.3 61.6
12/5/19 - 1500 60.8 0.3 76 53.2 NW | 318 3.0 13.3 0.00 0.002 0.02 0.00 51.3 61.3
12/5/19 - 1400 59.3 -0.7 87 55.5 NW | 317 3.1 7.5 0.00 0.003 0.02 0.00 51.3 60.0
12/5/19 - 1300 58.5 -0.9 86 54.4 WSW | 254 3.8 8.3 0.00 0.003 0.01 0.00 51.3 59.8
12/5/19 - 1200 58.7 -1.0 85 54.1 WSW | 244 1.9 9.8 0.00 0.005 0.01 0.00 51.3 59.2
12/5/19 - 1100 55.8 -1.4 92 53.4 W | 260 2.2 6.2 0.00 0.004 0.01 0.00 51.3 56.2
12/5/19 - 1000 53.8 -1.3 97 53.0 SSW | 209 3.2 7.5 0.00 0.003 0.01 0.00 51.3 55.2
12/5/19 - 0900 52.6 -0.7 100 52.6 NW | 312 2.2 6.3 0.00 0.001 0.01 0.00 51.3 55.2
12/5/19 - 0800 51.6 -0.3 100 51.6 WSW | 245 3.8 9.8 0.00 0.000 0.01 0.00 51.3 55.2
12/5/19 - 0700 51.9 0.1 99 51.6 SSW | 213 2.9 8.2 0.00 0.000 0.01 0.00 51.9 55.2
12/5/19 - 0600 53.0 0.1 99 52.7 SW | 235 2.6 7.7 0.00 0.000 0.01 0.00 52.3 55.2
12/5/19 - 0500 52.4 0.1 98 52.1 SW | 227 2.3 6.0 0.00 0.000 0.01 0.00 52.4 55.2
12/5/19 - 0400 53.9 0.2 99 53.5 SSW | 199 1.4 4.7 0.00 0.000 0.01 0.00 53.6 55.2
12/5/19 - 0300 54.1 0.2 98 53.7 SW | 221 1.5 5.5 0.00 0.000 0.01 0.00 54.1 55.2
12/5/19 - 0200 54.4 0.1 98 54.0 SE | 134 2.7 6.5 0.00 0.000 0.01 0.00 54.2 55.2
12/5/19 - 0100 54.3 0.2 98 53.9 S | 171 2.6 8.6 0.00 0.000 0.01 0.00 54.3 55.2
12/5/19 - 0000 54.6 0.2 99 54.3 S | 181 1.7 6.6 0.00 0.000 0.01 0.00 52.0 56.7
12/4/19 - 2300 54.5 0.2 99 54.2 SE | 128 1.6 4.1 0.00 0.000 0.01 0.00 52.0 56.7
Max 64.7 3.4 100 55.5 - 20.2 43.6 0.00 0.009 0.03 0.00 56.5 66.3
Avg 57.4 0.5 84 52.2 - 7.0 17.5 0.00 0.001 0.02 - - -
Min 51.6 -1.4 57 48.8 - 1.4 4.1 0.00 0.000 0.01 0.00 51.0 55.2
Total - - - - - - - 0.00 0.054 - - - -
Calm: 0.0%
Calm: 0.0%